createdAt,value
2018-12-03T00:01:34.703Z,13.70
2018-12-03T00:04:14.381Z,13.70
2018-12-03T00:06:48.911Z,13.60
2018-12-03T00:09:21.326Z,13.50
2018-12-03T00:11:59.472Z,13.50
2018-12-03T00:14:30.933Z,13.50
2018-12-03T00:17:02.387Z,13.50
2018-12-03T00:19:33.894Z,13.50
2018-12-03T00:22:05.914Z,13.50
2018-12-03T00:24:37.392Z,13.50
2018-12-03T00:27:09.074Z,13.40
2018-12-03T00:29:40.566Z,13.40
2018-12-03T00:32:12.027Z,13.40
2018-12-03T00:34:43.463Z,13.40
2018-12-03T00:37:15.084Z,13.40
2018-12-03T00:39:46.554Z,13.40
2018-12-03T00:42:18.011Z,13.40
2018-12-03T00:44:49.571Z,13.30
2018-12-03T00:47:21.056Z,13.30
2018-12-03T00:49:52.547Z,13.30
2018-12-03T00:52:23.916Z,13.20
2018-12-03T00:54:55.428Z,13.20
2018-12-03T00:57:26.993Z,13.20
2018-12-03T00:59:58.463Z,13.20
2018-12-03T01:02:29.841Z,13.20
2018-12-03T01:05:01.362Z,13.20
2018-12-03T01:07:32.849Z,13.30
2018-12-03T01:10:05.216Z,13.30
2018-12-03T01:12:36.746Z,13.30
2018-12-03T01:15:09.847Z,13.30
2018-12-03T01:17:41.361Z,13.30
2018-12-03T01:20:13.509Z,13.30
2018-12-03T01:22:45.014Z,13.30
2018-12-03T01:25:16.583Z,13.30
2018-12-03T01:27:48.211Z,13.30
2018-12-03T01:30:19.706Z,13.20
2018-12-03T01:32:51.127Z,13.20
2018-12-03T01:35:22.584Z,13.20
2018-12-03T01:37:54.024Z,13.20
2018-12-03T01:40:25.537Z,13.20
2018-12-03T01:42:57.060Z,13.20
2018-12-03T01:45:28.480Z,13.20
2018-12-03T01:47:59.943Z,13.20
2018-12-03T01:50:31.334Z,13.20
2018-12-03T01:53:02.734Z,13.20
2018-12-03T01:55:34.177Z,13.20
2018-12-03T01:58:05.718Z,13.20
2018-12-03T02:00:37.192Z,13.20
2018-12-03T02:03:08.681Z,13.20
2018-12-03T02:05:40.070Z,13.20
2018-12-03T02:08:11.520Z,13.20
2018-12-03T02:10:42.986Z,13.20
2018-12-03T02:13:14.655Z,13.20
2018-12-03T02:15:46.158Z,13.20
2018-12-03T02:18:17.545Z,13.20
2018-12-03T02:20:49.019Z,13.20
2018-12-03T02:23:20.488Z,13.20
2018-12-03T02:25:51.932Z,13.20
2018-12-03T02:28:23.391Z,13.30
2018-12-03T02:30:54.890Z,13.30
2018-12-03T02:33:26.377Z,13.30
2018-12-03T02:35:57.868Z,13.30
2018-12-03T02:38:29.338Z,13.30
2018-12-03T02:41:00.792Z,13.40
2018-12-03T02:43:32.169Z,13.40
2018-12-03T02:46:03.579Z,13.40
2018-12-03T02:48:35.012Z,13.40
2018-12-03T02:51:06.760Z,13.40
2018-12-03T02:53:38.192Z,13.50
2018-12-03T02:56:09.666Z,13.50
2018-12-03T02:58:41.066Z,13.50
2018-12-03T03:01:12.496Z,13.60
2018-12-03T03:03:43.958Z,13.50
2018-12-03T03:06:15.434Z,13.60
2018-12-03T03:08:46.810Z,13.50
2018-12-03T03:11:18.312Z,13.60
2018-12-03T03:13:49.794Z,13.50
2018-12-03T03:16:21.235Z,13.50
2018-12-03T03:18:52.776Z,13.50
2018-12-03T03:21:24.291Z,13.50
2018-12-03T03:23:55.824Z,13.50
2018-12-03T03:26:27.238Z,13.50
2018-12-03T03:28:58.762Z,13.50
2018-12-03T03:31:30.189Z,13.60
2018-12-03T03:34:01.616Z,13.60
2018-12-03T03:36:33.144Z,13.60
2018-12-03T03:39:05.944Z,13.60
2018-12-03T03:41:37.603Z,13.60
2018-12-03T03:44:09.054Z,13.60
2018-12-03T03:46:40.590Z,13.70
2018-12-03T03:49:11.980Z,13.70
2018-12-03T03:51:43.336Z,13.70
2018-12-03T03:54:14.778Z,13.70
2018-12-03T03:56:46.289Z,13.70
2018-12-03T03:59:17.675Z,13.70
2018-12-03T04:01:49.139Z,13.70
2018-12-03T04:04:20.566Z,13.70
2018-12-03T04:06:52.051Z,13.70
2018-12-03T04:09:30.130Z,13.70
2018-12-03T04:12:01.564Z,13.70
2018-12-03T04:14:32.993Z,13.70
2018-12-03T04:17:04.496Z,13.70
2018-12-03T04:19:35.944Z,13.70
2018-12-03T04:22:07.422Z,13.70
2018-12-03T04:24:38.968Z,13.70
2018-12-03T04:27:10.416Z,13.70
2018-12-03T04:29:41.798Z,13.70
2018-12-03T04:32:13.296Z,13.70
2018-12-03T04:34:44.685Z,13.70
2018-12-03T04:37:16.253Z,13.70
2018-12-03T04:39:47.675Z,13.70
2018-12-03T04:42:19.057Z,13.70
2018-12-03T04:44:50.435Z,13.70
2018-12-03T04:47:21.883Z,13.70
2018-12-03T04:49:53.377Z,13.70
2018-12-03T04:52:24.872Z,13.70
2018-12-03T04:54:56.305Z,13.70
2018-12-03T04:57:27.824Z,13.70
2018-12-03T04:59:59.223Z,13.70
2018-12-03T05:02:30.655Z,13.70
2018-12-03T05:05:02.222Z,13.70
2018-12-03T05:07:33.706Z,13.70
2018-12-03T05:10:14.824Z,13.70
2018-12-03T05:12:48.097Z,13.70
2018-12-03T05:15:19.555Z,13.70
2018-12-03T05:17:51.016Z,13.70
2018-12-03T05:20:24.533Z,13.70
2018-12-03T05:22:55.988Z,13.80
2018-12-03T05:25:27.410Z,13.80
2018-12-03T05:27:58.868Z,13.80
2018-12-03T05:30:30.337Z,13.80
2018-12-03T05:33:01.826Z,13.80
2018-12-03T05:35:33.268Z,13.80
2018-12-03T05:38:04.771Z,13.80
2018-12-03T05:40:36.232Z,13.70
2018-12-03T05:43:07.649Z,13.70
2018-12-03T05:45:39.204Z,13.70
2018-12-03T05:48:10.641Z,13.70
2018-12-03T05:50:42.240Z,13.70
2018-12-03T05:53:13.597Z,13.70
2018-12-03T05:55:45.122Z,13.70
2018-12-03T05:58:16.574Z,13.60
2018-12-03T06:00:48.228Z,13.60
2018-12-03T06:03:19.706Z,13.60
2018-12-03T06:05:51.382Z,13.60
2018-12-03T06:08:22.809Z,13.60
2018-12-03T06:10:54.341Z,13.60
2018-12-03T06:13:25.908Z,13.50
2018-12-03T06:15:57.465Z,13.50
2018-12-03T06:18:29.017Z,13.50
2018-12-03T06:21:00.543Z,13.40
2018-12-03T06:23:31.998Z,13.40
2018-12-03T06:26:03.416Z,13.40
2018-12-03T06:28:34.996Z,13.40
2018-12-03T06:31:06.442Z,13.40
2018-12-03T06:33:37.879Z,13.30
2018-12-03T06:36:09.343Z,13.30
2018-12-03T06:38:40.820Z,13.30
2018-12-03T06:41:12.337Z,13.40
2018-12-03T06:43:43.805Z,13.30
2018-12-03T06:46:15.251Z,13.30
2018-12-03T06:48:46.699Z,13.30
2018-12-03T06:51:18.095Z,13.30
2018-12-03T06:53:49.642Z,13.20
2018-12-03T06:56:21.025Z,13.20
2018-12-03T06:58:52.705Z,13.20
2018-12-03T07:01:24.126Z,13.20
2018-12-03T07:03:55.659Z,13.20
2018-12-03T07:06:27.222Z,13.20
2018-12-03T07:08:58.757Z,13.30
2018-12-03T07:11:30.256Z,13.30
2018-12-03T07:14:01.758Z,13.30
2018-12-03T07:16:33.399Z,13.40
2018-12-03T07:19:04.924Z,13.30
2018-12-03T07:21:36.347Z,13.40
2018-12-03T07:24:07.975Z,13.40
2018-12-03T07:26:39.420Z,13.40
2018-12-03T07:29:10.864Z,13.40
2018-12-03T07:31:42.264Z,13.40
2018-12-03T07:34:13.673Z,13.40
2018-12-03T07:36:45.115Z,13.40
2018-12-03T07:39:16.594Z,13.50
2018-12-03T07:42:22.823Z,13.50
2018-12-03T07:44:54.365Z,13.50
2018-12-03T07:47:41.986Z,13.50
2018-12-03T07:50:18.999Z,13.50
2018-12-03T07:53:00.065Z,13.50
2018-12-03T07:55:31.471Z,13.40
2018-12-03T07:58:25.076Z,13.40
2018-12-03T08:00:57.547Z,13.30
2018-12-03T08:03:45.037Z,13.30
2018-12-03T08:06:16.552Z,13.20
2018-12-03T08:08:48.120Z,13.20
2018-12-03T08:11:29.228Z,13.20
2018-12-03T08:14:00.718Z,13.20
2018-12-03T08:16:48.346Z,13.30
2018-12-03T08:19:19.741Z,13.30
2018-12-03T08:22:04.239Z,13.40
2018-12-03T08:24:36.645Z,13.40
2018-12-03T08:27:17.601Z,13.40
2018-12-03T08:29:48.992Z,13.50
2018-12-03T08:32:33.664Z,13.60
2018-12-03T08:35:06.638Z,13.60
2018-12-03T08:38:03.366Z,13.60
2018-12-03T08:40:33.520Z,13.60
2018-12-03T08:56:25.528Z,13.60
2018-12-03T08:58:57.417Z,13.60
2018-12-03T09:14:42.319Z,13.50
2018-12-03T09:17:14.517Z,13.50
2018-12-03T09:19:59.049Z,13.50
2018-12-03T09:22:34.146Z,13.50
2018-12-03T09:25:23.427Z,13.50
2018-12-03T09:27:54.825Z,13.60
2018-12-03T09:30:35.868Z,13.80
2018-12-03T09:33:07.682Z,13.90
2018-12-03T09:35:52.358Z,14.00
2018-12-03T09:38:24.108Z,14.00
2018-12-03T09:41:08.600Z,14.10
2018-12-03T09:43:44.180Z,14.20
2018-12-03T09:46:25.127Z,14.20
2018-12-03T09:48:58.541Z,14.30
2018-12-03T09:51:39.500Z,14.50
2018-12-03T09:54:12.069Z,14.50
2018-12-03T09:56:55.564Z,14.60
2018-12-03T09:59:27.067Z,14.70
2018-12-03T10:02:11.611Z,14.70
2018-12-03T10:04:46.315Z,14.80
2018-12-03T10:07:27.362Z,14.80
2018-12-03T10:09:58.832Z,14.90
2018-12-03T10:12:39.889Z,15.00
2018-12-03T10:15:13.931Z,15.20
2018-12-03T10:17:50.882Z,15.30
2018-12-03T10:20:42.492Z,15.40
2018-12-03T10:23:13.946Z,15.40
2018-12-03T10:26:06.568Z,15.40
2018-12-03T10:28:38.105Z,15.50
2018-12-03T10:31:19.231Z,15.60
2018-12-03T10:33:50.643Z,15.80
2018-12-03T10:38:19.276Z,15.80
2018-12-03T10:41:08.192Z,15.70
2018-12-03T10:43:39.916Z,15.70
2018-12-03T10:46:21.486Z,15.80
2018-12-03T10:48:53.017Z,16.00
2018-12-03T10:51:35.181Z,16.10
2018-12-03T10:54:06.898Z,16.20
2018-12-03T10:56:48.032Z,16.20
2018-12-03T10:59:19.450Z,16.30
2018-12-03T11:02:06.270Z,16.40
2018-12-03T11:04:43.607Z,16.40
2018-12-03T11:07:34.135Z,16.40
2018-12-03T11:10:07.496Z,16.30
2018-12-03T11:12:52.980Z,16.30
2018-12-03T11:15:24.767Z,16.20
2018-12-03T11:18:08.186Z,16.20
2018-12-03T11:20:39.753Z,16.20
2018-12-03T11:23:24.971Z,16.20
2018-12-03T11:25:56.867Z,16.30
2018-12-03T11:28:47.598Z,16.40
2018-12-03T11:31:25.529Z,16.50
2018-12-03T11:34:07.221Z,16.60
2018-12-03T11:36:49.438Z,16.50
2018-12-03T11:39:49.527Z,16.60
2018-12-03T11:42:21.211Z,16.80
2018-12-03T11:44:52.749Z,16.80
2018-12-03T11:47:24.270Z,16.80
2018-12-03T11:50:08.109Z,16.80
2018-12-03T11:52:39.676Z,16.90
2018-12-03T11:55:24.222Z,17.10
2018-12-03T11:57:55.635Z,17.00
2018-12-03T12:00:40.306Z,17.00
2018-12-03T12:03:11.794Z,16.90
2018-12-03T12:05:52.799Z,16.90
2018-12-03T12:08:24.192Z,16.90
2018-12-03T12:11:05.767Z,16.70
2018-12-03T12:13:39.140Z,16.60
2018-12-03T12:16:20.156Z,16.40
2018-12-03T12:18:51.677Z,16.30
2018-12-03T12:21:36.239Z,16.10
2018-12-03T12:24:07.778Z,16.10
2018-12-03T12:26:49.759Z,16.10
2018-12-03T12:29:21.178Z,16.10
2018-12-03T12:32:02.333Z,16.00
2018-12-03T12:34:33.796Z,16.00
2018-12-03T12:37:14.805Z,15.90
2018-12-03T12:39:46.454Z,15.80
2018-12-03T12:42:31.921Z,15.90
2018-12-03T12:45:03.701Z,15.90
2018-12-03T12:47:48.201Z,15.80
2018-12-03T12:50:19.774Z,15.80
2018-12-03T12:53:00.801Z,15.80
2018-12-03T12:55:32.246Z,15.90
2018-12-03T12:58:16.849Z,15.90
2018-12-03T13:00:48.329Z,15.90
2018-12-03T13:03:29.528Z,15.90
2018-12-03T13:06:01.007Z,15.90
2018-12-03T13:08:42.133Z,15.90
2018-12-03T13:11:13.580Z,15.90
2018-12-03T13:13:55.036Z,15.80
2018-12-03T13:16:26.593Z,15.80
2018-12-03T13:19:09.319Z,15.80
2018-12-03T13:21:40.863Z,15.80
2018-12-03T13:24:21.869Z,15.80
2018-12-03T13:26:53.310Z,15.70
2018-12-03T13:29:34.616Z,15.70
2018-12-03T13:32:06.595Z,15.60
2018-12-03T13:34:47.641Z,15.60
2018-12-03T13:37:19.373Z,15.60
2018-12-03T13:40:00.418Z,15.50
2018-12-03T13:42:32.809Z,15.50
2018-12-03T13:45:20.914Z,15.50
2018-12-03T13:47:53.768Z,15.50
2018-12-03T13:50:38.405Z,15.50
2018-12-03T13:53:10.118Z,15.50
2018-12-03T13:55:51.841Z,15.50
2018-12-03T13:58:23.306Z,15.60
2018-12-03T14:01:05.460Z,15.60
2018-12-03T14:03:38.974Z,15.60
2018-12-03T14:06:38.031Z,15.60
2018-12-03T14:09:53.180Z,15.70
2018-12-03T14:13:47.664Z,15.70
2018-12-03T14:17:31.131Z,15.60
2018-12-03T14:20:15.710Z,15.50
2018-12-03T14:22:59.575Z,15.40
2018-12-03T14:25:41.046Z,15.30
2018-12-03T14:28:12.478Z,15.30
2018-12-03T14:30:57.155Z,15.20
2018-12-03T14:33:28.769Z,15.10
2018-12-03T14:36:09.898Z,15.10
2018-12-03T14:38:41.649Z,15.00
2018-12-03T14:41:23.280Z,15.00
2018-12-03T14:43:54.865Z,14.90
2018-12-03T14:46:39.485Z,14.90
2018-12-03T14:50:14.180Z,14.90
2018-12-03T14:52:55.640Z,14.80
2018-12-03T14:55:33.678Z,14.80
2018-12-03T14:58:14.671Z,14.80
2018-12-03T15:00:46.129Z,14.70
2018-12-03T15:03:27.246Z,14.70
2018-12-03T15:05:59.012Z,14.60
2018-12-03T15:08:43.614Z,14.60
2018-12-03T15:11:15.238Z,14.60
2018-12-03T15:13:59.846Z,14.60
2018-12-03T15:16:32.200Z,14.60
2018-12-03T15:19:16.726Z,14.60
2018-12-03T15:21:48.503Z,14.60
2018-12-03T15:24:33.203Z,14.50
2018-12-03T15:27:04.797Z,14.50
2018-12-03T15:29:36.414Z,14.50
2018-12-03T15:32:21.040Z,14.50
2018-12-03T15:34:52.546Z,14.50
2018-12-03T15:37:37.086Z,14.50
2018-12-03T15:40:13.858Z,14.40
2018-12-03T15:42:54.891Z,14.40
2018-12-03T15:45:26.321Z,14.30
2018-12-03T15:48:10.854Z,14.30
2018-12-03T15:50:42.259Z,14.20
2018-12-03T15:53:26.778Z,14.20
2018-12-03T15:55:58.275Z,14.20
2018-12-03T15:58:39.249Z,14.20
2018-12-03T16:01:14.399Z,14.10
2018-12-03T16:03:53.845Z,14.10
2018-12-03T16:06:25.325Z,14.00
2018-12-03T16:09:11.997Z,14.00
2018-12-03T16:11:43.500Z,13.90
2018-12-03T16:14:28.694Z,13.90
2018-12-03T16:17:00.169Z,13.90
2018-12-03T16:19:44.769Z,13.90
2018-12-03T16:22:16.242Z,13.80
2018-12-03T16:24:57.332Z,13.80
2018-12-03T16:27:28.927Z,13.80
2018-12-03T16:30:17.453Z,13.80
2018-12-03T16:32:49.095Z,13.70
2018-12-03T16:35:30.825Z,13.70
2018-12-03T16:38:02.295Z,13.70
2018-12-03T16:40:43.452Z,13.70
2018-12-03T16:43:15.213Z,13.70
2018-12-03T16:45:59.791Z,13.60
2018-12-03T16:48:31.519Z,13.60
2018-12-03T16:51:25.780Z,13.60
2018-12-03T16:53:57.550Z,13.60
2018-12-03T17:10:16.665Z,13.50
2018-12-03T17:12:52.500Z,13.50
2018-12-03T17:15:33.508Z,13.40
2018-12-03T17:18:07.021Z,13.40
2018-12-03T17:21:20.307Z,13.40
2018-12-03T17:24:28.348Z,13.40
2018-12-03T17:27:12.989Z,13.30
2018-12-03T17:29:44.533Z,13.30
2018-12-03T17:32:26.146Z,13.30
2018-12-03T17:34:57.719Z,13.30
2018-12-03T17:50:39.567Z,13.10
2018-12-03T17:53:11.148Z,13.10
2018-12-03T17:55:52.927Z,13.10
2018-12-03T17:58:26.678Z,13.00
2018-12-03T18:01:14.162Z,13.10
2018-12-03T18:03:45.661Z,13.00
2018-12-03T18:06:17.244Z,13.00
2018-12-03T18:08:48.720Z,13.10
2018-12-03T18:11:34.084Z,13.10
2018-12-03T18:14:05.964Z,13.10
2018-12-03T18:16:37.344Z,13.10
2018-12-03T18:19:34.910Z,13.10
2018-12-03T18:22:06.465Z,13.10
2018-12-03T18:24:37.886Z,13.20
2018-12-03T18:27:09.290Z,13.10
2018-12-03T18:29:53.847Z,13.20
2018-12-03T18:32:25.256Z,13.20
2018-12-03T18:34:56.753Z,13.20
2018-12-03T18:37:28.251Z,13.20
2018-12-03T18:40:11.987Z,13.20
2018-12-03T18:42:45.358Z,13.20
2018-12-03T18:45:30.125Z,13.20
2018-12-03T18:48:01.727Z,13.20
2018-12-03T18:50:47.214Z,13.10
2018-12-03T18:53:23.179Z,13.10
2018-12-03T18:56:10.723Z,13.10
2018-12-03T18:58:49.136Z,13.20
2018-12-03T19:01:43.309Z,13.10
2018-12-03T19:04:16.033Z,13.20
2018-12-03T19:07:00.499Z,13.10
2018-12-03T19:09:33.557Z,13.20
2018-12-03T19:25:36.918Z,13.10
2018-12-03T19:28:08.513Z,13.10
2018-12-03T19:44:00.099Z,13.00
2018-12-03T19:46:32.861Z,13.00
2018-12-03T19:49:23.329Z,13.00
2018-12-03T19:51:55.964Z,13.00
2018-12-03T20:07:49.180Z,13.00
2018-12-03T20:10:21.349Z,13.00
2018-12-03T20:12:53.287Z,13.00
2018-12-03T20:15:35.089Z,12.90
2018-12-03T20:18:07.282Z,12.90
2018-12-03T20:20:58.362Z,12.90
2018-12-03T20:23:35.267Z,12.90
2018-12-03T20:27:01.730Z,12.90
2018-12-03T20:29:54.669Z,12.90
2018-12-03T20:33:00.562Z,12.90
2018-12-03T20:35:55.699Z,12.80
2018-12-03T20:39:00.615Z,12.80
2018-12-03T20:41:40.280Z,12.80
2018-12-03T20:44:28.574Z,12.80
2018-12-03T20:47:16.182Z,12.80
2018-12-03T20:50:17.361Z,12.70
2018-12-03T20:52:50.230Z,12.70
2018-12-03T20:55:49.029Z,12.70
2018-12-03T20:58:20.481Z,12.70
2018-12-03T21:00:52.598Z,12.70
2018-12-03T21:03:33.737Z,12.70
2018-12-03T21:06:05.293Z,12.70
2018-12-03T21:08:36.889Z,12.70
2018-12-03T21:11:18.061Z,12.80
2018-12-03T21:13:49.566Z,12.70
2018-12-03T21:16:34.251Z,12.80
2018-12-03T21:19:05.721Z,12.70
2018-12-03T21:21:46.939Z,12.70
2018-12-03T21:24:18.478Z,12.70
2018-12-03T21:27:00.164Z,12.80
2018-12-03T21:29:32.032Z,12.70
2018-12-03T21:32:13.139Z,12.70
2018-12-03T21:34:44.747Z,12.70
2018-12-03T21:37:32.518Z,12.70
2018-12-03T21:40:04.307Z,12.70
2018-12-03T21:42:45.931Z,12.70
2018-12-03T21:45:17.639Z,12.80
2018-12-03T21:48:02.256Z,12.80
2018-12-03T21:50:33.889Z,12.80
2018-12-03T21:53:15.047Z,12.80
2018-12-03T21:55:46.719Z,12.80
2018-12-03T21:58:28.393Z,12.80
2018-12-03T22:00:59.966Z,12.90
2018-12-03T22:03:41.030Z,12.90
2018-12-03T22:06:12.894Z,12.90
2018-12-03T22:08:54.011Z,12.90
2018-12-03T22:11:25.575Z,12.90
2018-12-03T22:14:06.940Z,12.90
2018-12-03T22:16:38.780Z,12.90
2018-12-03T22:19:23.477Z,12.90
2018-12-03T22:21:55.295Z,13.00
2018-12-03T22:24:36.857Z,13.00
2018-12-03T22:27:08.486Z,13.00
2018-12-03T22:29:49.600Z,13.00
2018-12-03T22:32:21.047Z,13.00
2018-12-03T22:35:02.152Z,13.00
2018-12-03T22:37:33.738Z,13.00
2018-12-03T22:40:14.875Z,13.10
2018-12-03T22:42:46.467Z,13.10
2018-12-03T22:45:31.082Z,13.10
2018-12-03T22:48:02.575Z,13.10
2018-12-03T22:50:44.702Z,13.10
2018-12-03T22:53:16.201Z,13.10
2018-12-03T22:55:57.357Z,13.10
2018-12-03T22:58:28.916Z,13.10
2018-12-03T23:01:10.013Z,13.10
2018-12-03T23:03:43.644Z,13.10
2018-12-03T23:06:25.223Z,13.10
2018-12-03T23:08:56.843Z,13.00
2018-12-03T23:11:38.384Z,13.00
2018-12-03T23:14:09.917Z,13.00
2018-12-03T23:16:50.971Z,12.90
2018-12-03T23:19:22.661Z,13.00
2018-12-03T23:22:04.234Z,13.00
2018-12-03T23:24:35.994Z,13.00
2018-12-03T23:27:17.150Z,13.00
2018-12-03T23:29:48.804Z,13.00
2018-12-03T23:32:30.450Z,13.00
2018-12-03T23:35:01.943Z,13.00
2018-12-03T23:37:43.048Z,13.00
2018-12-03T23:40:15.391Z,13.00
2018-12-03T23:42:56.537Z,13.00
2018-12-03T23:45:28.138Z,13.00
2018-12-03T23:48:12.806Z,13.00
2018-12-03T23:50:50.999Z,12.90
2018-12-03T23:53:32.202Z,12.80
2018-12-03T23:56:03.707Z,12.70
2018-12-03T23:58:51.346Z,12.60
